createdAt,value
2022-11-01T00:00:12.492Z,151.02
2022-11-01T00:02:38.903Z,154.77
2022-11-01T00:05:05.214Z,150.23
2022-11-01T00:07:35.027Z,149.07
2022-11-01T00:10:01.467Z,148.57
2022-11-01T00:12:28.511Z,147.82
2022-11-01T00:14:54.984Z,149.27
2022-11-01T00:17:21.548Z,142.98
2022-11-01T00:19:47.855Z,144.23
2022-11-01T00:22:14.208Z,142.50
2022-11-01T00:24:40.578Z,142.00
2022-11-01T00:27:06.941Z,142.95
2022-11-01T00:29:33.248Z,137.38
2022-11-01T00:31:59.611Z,136.80
2022-11-01T00:34:25.868Z,138.23
2022-11-01T00:36:52.174Z,137.57
2022-11-01T00:39:18.454Z,135.95
2022-11-01T00:41:44.934Z,135.45
2022-11-01T00:44:11.199Z,136.60
2022-11-01T00:46:37.468Z,133.63
2022-11-01T00:49:03.735Z,128.88
2022-11-01T00:51:30.009Z,130.68
2022-11-01T00:53:56.812Z,130.27
2022-11-01T00:56:23.109Z,127.40
2022-11-01T00:58:49.353Z,127.70
2022-11-01T01:01:15.745Z,125.05
2022-11-01T01:03:42.222Z,127.25
2022-11-01T01:06:08.491Z,123.18
2022-11-01T01:08:34.771Z,125.57
2022-11-01T01:11:01.881Z,121.15
2022-11-01T01:13:28.169Z,121.47
2022-11-01T01:15:54.413Z,122.47
2022-11-01T01:18:20.718Z,118.75
2022-11-01T01:20:47.414Z,117.65
2022-11-01T01:23:13.703Z,119.80
2022-11-01T01:25:39.999Z,118.50
2022-11-01T01:28:06.371Z,116.88
2022-11-01T01:30:32.744Z,115.30
2022-11-01T01:32:59.122Z,115.53
2022-11-01T01:35:26.181Z,114.53
2022-11-01T01:37:52.631Z,114.72
2022-11-01T01:40:18.963Z,111.22
2022-11-01T01:42:45.484Z,111.25
2022-11-01T01:45:11.768Z,110.30
2022-11-01T01:47:38.063Z,108.85
2022-11-01T01:50:04.363Z,108.70
2022-11-01T01:52:30.684Z,107.57
2022-11-01T01:54:56.983Z,106.60
2022-11-01T01:57:23.288Z,110.80
2022-11-01T01:59:49.837Z,107.22
2022-11-01T02:02:16.265Z,104.93
2022-11-01T02:04:43.099Z,105.57
2022-11-01T02:07:11.637Z,107.55
2022-11-01T02:09:39.269Z,105.50
2022-11-01T02:12:05.608Z,103.18
2022-11-01T02:14:31.850Z,101.97
2022-11-01T02:16:58.603Z,101.35
2022-11-01T02:19:24.965Z,100.55
2022-11-01T02:21:54.030Z,98.05
2022-11-01T02:24:20.431Z,99.78
2022-11-01T02:26:46.716Z,99.60
2022-11-01T02:29:12.988Z,99.10
2022-11-01T02:31:39.472Z,98.00
2022-11-01T02:34:05.893Z,95.35
2022-11-01T02:36:32.520Z,95.25
2022-11-01T02:38:58.849Z,92.82
2022-11-01T02:41:25.388Z,91.78
2022-11-01T02:43:51.887Z,93.93
2022-11-01T02:46:18.315Z,88.85
2022-11-01T02:48:44.816Z,85.63
2022-11-01T02:51:11.202Z,86.80
2022-11-01T02:53:37.498Z,84.35
2022-11-01T02:56:03.921Z,86.32
2022-11-01T02:58:30.249Z,87.07
2022-11-01T03:00:56.823Z,82.50
2022-11-01T03:03:23.170Z,80.00
2022-11-01T03:05:49.614Z,79.93
2022-11-01T03:08:15.852Z,79.15
2022-11-01T03:10:42.147Z,77.72
2022-11-01T03:13:08.467Z,79.20
2022-11-01T03:15:34.768Z,75.78
2022-11-01T03:18:01.068Z,76.18
2022-11-01T03:20:27.480Z,74.03
2022-11-01T03:22:53.966Z,71.28
2022-11-01T03:25:20.262Z,70.60
2022-11-01T03:27:46.610Z,70.03
2022-11-01T03:30:13.089Z,67.93
2022-11-01T03:32:39.340Z,64.75
2022-11-01T03:35:05.675Z,65.00
2022-11-01T03:37:31.951Z,65.78
2022-11-01T03:39:58.370Z,64.05
2022-11-01T03:42:25.156Z,64.82
2022-11-01T03:44:51.504Z,62.38
2022-11-01T03:47:18.140Z,60.55
2022-11-01T03:49:44.501Z,59.67
2022-11-01T03:52:10.750Z,61.28
2022-11-01T03:54:37.220Z,62.13
2022-11-01T03:57:03.511Z,63.28
2022-11-01T03:59:29.755Z,60.67
2022-11-01T04:01:56.129Z,60.50
2022-11-01T04:04:22.620Z,59.20
2022-11-01T04:06:48.910Z,59.88
2022-11-01T04:09:15.528Z,59.40
2022-11-01T04:11:41.884Z,58.90
2022-11-01T04:14:08.266Z,60.33
2022-11-01T04:16:34.794Z,56.75
2022-11-01T04:19:01.561Z,59.38
2022-11-01T04:21:27.830Z,59.10
2022-11-01T04:23:54.142Z,56.70
2022-11-01T04:26:20.854Z,56.38
2022-11-01T04:28:47.372Z,56.33
2022-11-01T04:31:13.664Z,57.60
2022-11-01T04:33:39.976Z,56.85
2022-11-01T04:36:06.277Z,54.63
2022-11-01T04:38:32.551Z,56.78
2022-11-01T04:40:58.853Z,56.42
2022-11-01T04:43:25.171Z,54.25
2022-11-01T04:45:51.464Z,54.95
2022-11-01T04:48:17.982Z,54.00
2022-11-01T04:50:44.289Z,55.17
2022-11-01T04:53:11.591Z,55.25
2022-11-01T04:55:37.972Z,52.95
2022-11-01T04:58:04.373Z,53.05
2022-11-01T05:00:30.872Z,53.45
2022-11-01T05:02:57.195Z,51.17
2022-11-01T05:05:23.599Z,51.63
2022-11-01T05:07:50.034Z,52.50
2022-11-01T05:10:16.490Z,51.72
2022-11-01T05:12:42.826Z,49.65
2022-11-01T05:15:09.272Z,49.30
2022-11-01T05:17:35.609Z,51.33
2022-11-01T05:20:02.112Z,50.60
2022-11-01T05:22:28.540Z,50.28
2022-11-01T05:24:54.915Z,49.33
2022-11-01T05:27:21.255Z,49.58
2022-11-01T05:29:47.715Z,50.72
2022-11-01T05:32:14.254Z,50.08
2022-11-01T05:34:40.585Z,45.85
2022-11-01T05:37:06.902Z,48.95
2022-11-01T05:39:33.487Z,47.33
2022-11-01T05:42:02.665Z,47.25
2022-11-01T05:44:29.475Z,45.33
2022-11-01T05:46:55.994Z,47.78
2022-11-01T05:49:22.331Z,47.17
2022-11-01T05:51:49.451Z,47.50
2022-11-01T05:54:15.935Z,48.33
2022-11-01T05:56:42.386Z,44.97
2022-11-01T05:59:08.688Z,45.92
2022-11-01T06:01:35.019Z,45.85
2022-11-01T06:04:01.487Z,44.72
2022-11-01T06:06:27.805Z,44.60
2022-11-01T06:08:54.128Z,43.10
2022-11-01T06:11:20.495Z,45.35
2022-11-01T06:13:46.784Z,46.10
2022-11-01T06:16:13.336Z,43.92
2022-11-01T06:18:40.097Z,43.38
2022-11-01T06:21:06.389Z,43.90
2022-11-01T06:23:32.672Z,43.10
2022-11-01T06:25:58.978Z,42.20
2022-11-01T06:28:25.283Z,42.47
2022-11-01T06:30:51.669Z,42.40
2022-11-01T06:33:17.988Z,40.08
2022-11-01T06:35:44.250Z,41.55
2022-11-01T06:38:10.623Z,40.65
2022-11-01T06:40:36.939Z,41.28
2022-11-01T06:43:03.700Z,40.70
2022-11-01T06:45:30.550Z,39.38
2022-11-01T06:47:56.820Z,41.97
2022-11-01T06:50:23.147Z,39.47
2022-11-01T06:52:49.576Z,39.40
2022-11-01T06:55:15.944Z,37.65
2022-11-01T06:57:42.162Z,39.28
2022-11-01T07:00:08.443Z,40.42
2022-11-01T07:02:34.845Z,40.22
2022-11-01T07:05:01.340Z,41.17
2022-11-01T07:07:27.739Z,40.20
2022-11-01T07:09:54.074Z,40.67
2022-11-01T07:12:20.422Z,39.03
2022-11-01T07:14:46.690Z,38.55
2022-11-01T07:17:12.982Z,38.00
2022-11-01T07:19:39.599Z,39.10
2022-11-01T07:22:05.838Z,37.33
2022-11-01T07:24:32.220Z,37.65
2022-11-01T07:26:58.516Z,37.97
2022-11-01T07:29:24.909Z,38.70
2022-11-01T07:31:51.190Z,37.03
2022-11-01T07:34:17.472Z,36.05
2022-11-01T07:36:43.814Z,35.38
2022-11-01T07:39:10.156Z,35.50
2022-11-01T07:41:36.453Z,37.80
2022-11-01T07:44:02.876Z,35.03
2022-11-01T07:46:29.150Z,37.22
2022-11-01T07:48:55.513Z,36.47
2022-11-01T07:51:22.134Z,35.20
2022-11-01T07:53:48.543Z,33.72
2022-11-01T07:56:15.238Z,35.50
2022-11-01T07:58:42.312Z,33.88
2022-11-01T08:01:08.782Z,32.78
2022-11-01T08:03:35.242Z,34.80
2022-11-01T08:06:01.537Z,33.42
2022-11-01T08:08:28.064Z,33.13
2022-11-01T08:10:54.471Z,33.03
2022-11-01T08:13:20.859Z,34.10
2022-11-01T08:15:47.832Z,32.65
2022-11-01T08:18:14.116Z,32.35
2022-11-01T08:20:40.440Z,32.30
2022-11-01T08:23:07.100Z,31.40
2022-11-01T08:25:33.725Z,32.83
2022-11-01T08:28:00.189Z,31.90
2022-11-01T08:30:35.401Z,33.55
2022-11-01T08:33:02.204Z,32.03
2022-11-01T08:35:29.017Z,32.28
2022-11-01T08:37:55.359Z,31.80
2022-11-01T08:40:21.765Z,31.45
2022-11-01T08:42:48.105Z,30.48
2022-11-01T08:45:14.425Z,31.90
2022-11-01T08:47:40.777Z,29.75
2022-11-01T08:50:08.692Z,30.40
2022-11-01T08:52:37.374Z,29.13
2022-11-01T08:55:04.139Z,31.08
2022-11-01T08:57:30.440Z,29.80
2022-11-01T08:59:56.975Z,30.98
2022-11-01T09:02:23.366Z,30.50
2022-11-01T09:04:50.007Z,29.17
2022-11-01T09:07:16.460Z,31.25
2022-11-01T09:09:43.025Z,29.80
2022-11-01T09:12:13.871Z,29.67
2022-11-01T09:14:40.919Z,29.50
2022-11-01T09:17:07.188Z,29.05
2022-11-01T09:19:33.763Z,28.25
2022-11-01T09:22:00.141Z,28.92
2022-11-01T09:24:26.577Z,29.05
2022-11-01T09:26:52.888Z,27.75
2022-11-01T09:29:19.212Z,28.27
2022-11-01T09:31:45.818Z,28.65
2022-11-01T09:34:12.218Z,29.08
2022-11-01T09:36:38.599Z,28.27
2022-11-01T09:39:04.920Z,28.40
2022-11-01T09:41:31.235Z,28.92
2022-11-01T09:43:57.596Z,27.35
2022-11-01T09:46:23.902Z,28.20
2022-11-01T09:48:50.248Z,27.27
2022-11-01T09:51:16.481Z,27.77
2022-11-01T09:53:42.880Z,27.35
2022-11-01T09:56:09.296Z,27.90
2022-11-01T09:58:35.607Z,26.42
2022-11-01T10:01:01.995Z,26.20
2022-11-01T10:03:28.309Z,28.15
2022-11-01T10:05:54.710Z,26.40
2022-11-01T10:08:21.130Z,25.95
2022-11-01T10:10:47.562Z,26.05
2022-11-01T10:13:13.925Z,25.52
2022-11-01T10:15:40.540Z,26.88
2022-11-01T10:18:08.076Z,24.90
2022-11-01T10:20:34.824Z,26.35
2022-11-01T10:23:01.504Z,25.50
2022-11-01T10:25:28.216Z,24.13
2022-11-01T10:27:54.612Z,24.90
2022-11-01T10:30:20.956Z,25.30
2022-11-01T10:32:47.260Z,25.02
2022-11-01T10:35:13.685Z,24.90
2022-11-01T10:37:47.254Z,24.60
2022-11-01T10:40:23.966Z,24.33
2022-11-01T10:42:50.270Z,24.38
2022-11-01T10:45:16.769Z,24.90
2022-11-01T10:47:43.234Z,24.55
2022-11-01T10:50:09.732Z,23.58
2022-11-01T10:52:36.120Z,23.30
2022-11-01T10:55:02.676Z,24.05
2022-11-01T10:57:28.938Z,22.40
2022-11-01T10:59:55.491Z,24.17
2022-11-01T11:02:21.907Z,24.35
2022-11-01T11:04:48.384Z,22.85
2022-11-01T11:07:18.548Z,23.67
2022-11-01T11:09:48.036Z,22.20
2022-11-01T11:12:14.448Z,22.85
2022-11-01T11:14:40.793Z,22.85
2022-11-01T11:17:07.150Z,22.25
2022-11-01T11:19:33.483Z,22.55
2022-11-01T11:21:59.787Z,21.75
2022-11-01T11:24:26.192Z,21.55
2022-11-01T11:26:54.335Z,21.15
2022-11-01T11:29:21.308Z,21.90
2022-11-01T11:31:47.586Z,21.92
2022-11-01T11:34:13.954Z,21.17
2022-11-01T11:36:41.986Z,20.92
2022-11-01T11:39:08.530Z,20.38
2022-11-01T11:41:35.240Z,21.90
2022-11-01T11:44:01.669Z,21.50
2022-11-01T11:46:28.161Z,20.50
2022-11-01T11:48:54.509Z,20.85
2022-11-01T11:51:20.825Z,20.77
2022-11-01T11:53:47.198Z,20.23
2022-11-01T11:56:13.560Z,20.75
2022-11-01T11:58:39.827Z,19.27
2022-11-01T12:01:06.308Z,19.20
2022-11-01T12:03:32.788Z,19.75
2022-11-01T12:05:59.144Z,19.98
2022-11-01T12:08:25.946Z,19.88
2022-11-01T12:10:52.499Z,19.15
2022-11-01T12:13:18.744Z,19.67
2022-11-01T12:15:45.237Z,19.25
2022-11-01T12:18:14.695Z,19.50
2022-11-01T12:20:42.335Z,18.73
2022-11-01T12:23:08.708Z,18.83
2022-11-01T12:25:35.290Z,18.88
2022-11-01T12:28:02.269Z,18.55
2022-11-01T12:30:28.980Z,18.92
2022-11-01T12:32:55.422Z,18.38
2022-11-01T12:35:21.850Z,19.00
2022-11-01T12:37:48.232Z,18.98
2022-11-01T12:40:14.779Z,17.65
2022-11-01T12:42:41.262Z,18.88
2022-11-01T12:45:07.584Z,17.00
2022-11-01T12:47:33.933Z,17.88
2022-11-01T12:50:00.192Z,18.20
2022-11-01T12:52:27.306Z,18.73
2022-11-01T12:54:53.787Z,18.13
2022-11-01T12:57:20.063Z,16.95
2022-11-01T12:59:46.874Z,17.70
2022-11-01T13:02:13.230Z,17.40
2022-11-01T13:04:39.780Z,17.48
2022-11-01T13:07:06.408Z,16.73
2022-11-01T13:09:32.859Z,17.58
2022-11-01T13:11:59.376Z,16.95
2022-11-01T13:14:26.524Z,16.92
2022-11-01T13:16:52.860Z,16.25
2022-11-01T13:19:19.178Z,16.15
2022-11-01T13:21:45.620Z,16.30
2022-11-01T13:24:12.037Z,16.70
2022-11-01T13:26:38.361Z,16.17
2022-11-01T13:29:04.816Z,15.82
2022-11-01T13:31:31.342Z,15.80
2022-11-01T13:33:57.846Z,16.73
2022-11-01T13:36:28.690Z,14.80
2022-11-01T13:38:57.667Z,16.35
2022-11-01T13:41:23.952Z,16.33
2022-11-01T13:43:50.390Z,15.93
2022-11-01T13:46:16.914Z,15.77
2022-11-01T13:48:43.194Z,15.23
2022-11-01T13:51:09.640Z,15.20
2022-11-01T13:53:36.019Z,15.50
2022-11-01T13:56:02.357Z,15.60
2022-11-01T13:58:28.650Z,15.00
2022-11-01T14:00:54.937Z,15.20
2022-11-01T14:03:21.288Z,14.70
2022-11-01T14:05:47.584Z,15.10
2022-11-01T14:08:13.894Z,14.30
2022-11-01T14:10:40.454Z,14.60
2022-11-01T14:13:06.747Z,15.05
2022-11-01T14:15:33.051Z,15.02
2022-11-01T14:17:59.574Z,14.15
2022-11-01T14:20:25.989Z,13.85
2022-11-01T14:22:52.569Z,14.70
2022-11-01T14:27:51.840Z,14.73
2022-11-01T14:30:18.419Z,14.98
2022-11-01T14:32:44.750Z,13.75
2022-11-01T14:35:11.151Z,14.10
2022-11-01T14:37:37.583Z,14.27
2022-11-01T14:40:04.103Z,13.57
2022-11-01T14:42:31.908Z,13.55
2022-11-01T14:44:58.610Z,13.85
2022-11-01T14:47:24.959Z,13.55
2022-11-01T14:49:51.627Z,13.40
2022-11-01T14:52:18.031Z,14.27
2022-11-01T14:54:44.576Z,13.13
2022-11-01T14:57:10.900Z,13.25
2022-11-01T14:59:37.165Z,13.00
2022-11-01T15:02:03.798Z,12.95
2022-11-01T15:04:30.320Z,13.98
2022-11-01T15:06:56.712Z,12.32
2022-11-01T15:09:23.034Z,12.80
2022-11-01T15:11:49.356Z,13.38
2022-11-01T15:14:15.694Z,13.25
2022-11-01T15:16:42.099Z,13.23
2022-11-01T15:19:08.347Z,13.13
2022-11-01T15:21:34.702Z,12.15
2022-11-01T15:24:01.144Z,12.88
2022-11-01T15:26:27.607Z,12.45
2022-11-01T15:28:53.944Z,12.90
2022-11-01T15:31:20.299Z,12.93
2022-11-01T15:33:46.588Z,11.82
2022-11-01T15:36:13.571Z,12.35
2022-11-01T15:38:40.026Z,13.02
2022-11-01T15:41:06.328Z,12.50
2022-11-01T15:43:32.724Z,12.27
2022-11-01T15:45:59.052Z,13.20
2022-11-01T15:48:25.399Z,13.45
2022-11-01T15:50:51.703Z,12.85
2022-11-01T15:53:18.039Z,12.85
2022-11-01T15:55:44.351Z,12.35
2022-11-01T15:58:10.708Z,11.93
2022-11-01T16:00:37.032Z,11.27
2022-11-01T16:03:03.719Z,12.40
2022-11-01T16:05:30.345Z,13.10
2022-11-01T16:07:56.865Z,12.13
2022-11-01T16:10:23.217Z,12.10
2022-11-01T16:12:49.568Z,12.18
2022-11-01T16:15:15.916Z,11.88
2022-11-01T16:17:42.337Z,12.32
2022-11-01T16:20:08.759Z,11.30
2022-11-01T16:22:35.029Z,12.55
2022-11-01T16:25:01.732Z,11.73
2022-11-01T16:27:28.726Z,12.15
2022-11-01T16:29:54.969Z,10.95
2022-11-01T16:32:21.332Z,11.32
2022-11-01T16:34:47.661Z,11.43
2022-11-01T16:37:14.003Z,12.13
2022-11-01T16:39:41.185Z,11.40
2022-11-01T16:42:07.503Z,11.43
2022-11-01T16:44:33.853Z,11.35
2022-11-01T16:47:00.164Z,11.07
2022-11-01T16:49:26.583Z,11.25
2022-11-01T16:51:52.994Z,11.63
2022-11-01T16:54:19.509Z,12.40
2022-11-01T16:56:45.966Z,12.52
2022-11-01T16:59:12.938Z,12.23
2022-11-01T17:04:13.222Z,12.25
2022-11-01T17:06:39.658Z,11.90
2022-11-01T17:11:46.472Z,11.23
2022-11-01T17:14:18.543Z,11.32
2022-11-01T17:16:45.032Z,11.30
2022-11-01T17:19:11.412Z,11.60
2022-11-01T17:21:37.747Z,12.13
2022-11-01T17:24:04.159Z,11.20
2022-11-01T17:26:30.634Z,11.90
2022-11-01T17:28:57.088Z,11.30
2022-11-01T17:31:23.380Z,12.07
2022-11-01T17:33:49.740Z,11.52
2022-11-01T17:36:16.046Z,12.35
2022-11-01T17:38:42.456Z,13.13
2022-11-01T17:41:09.167Z,12.30
2022-11-01T17:43:36.245Z,11.48
2022-11-01T17:46:02.761Z,25.85
2022-11-01T17:48:29.302Z,168.45
2022-11-01T17:50:55.733Z,197.75
2022-11-01T17:53:22.085Z,178.95
2022-11-01T17:55:48.384Z,173.73
2022-11-01T17:58:14.763Z,164.85
2022-11-01T18:00:41.030Z,165.23
2022-11-01T18:03:07.604Z,168.10
2022-11-01T18:05:34.452Z,170.40
2022-11-01T18:08:00.921Z,168.10
2022-11-01T18:10:27.420Z,164.68
2022-11-01T18:12:53.743Z,301.27
2022-11-01T18:15:20.055Z,377.48
2022-11-01T18:17:48.876Z,350.73
2022-11-01T18:20:15.823Z,332.63
2022-11-01T18:22:42.196Z,330.52
2022-11-01T18:25:08.520Z,328.05
2022-11-01T18:27:34.830Z,313.92
2022-11-01T18:30:01.409Z,301.70
2022-11-01T18:32:27.786Z,299.13
2022-11-01T18:34:54.170Z,293.48
2022-11-01T18:37:20.522Z,291.65
2022-11-01T18:39:47.003Z,316.30
2022-11-01T18:42:13.349Z,363.33
2022-11-01T18:44:39.768Z,372.35
2022-11-01T18:47:06.156Z,371.83
2022-11-01T18:49:32.546Z,371.73
2022-11-01T18:52:00.380Z,362.17
2022-11-01T18:54:26.780Z,358.42
2022-11-01T18:56:54.430Z,351.90
2022-11-01T18:59:20.773Z,340.02
2022-11-01T19:01:47.282Z,341.70
2022-11-01T19:04:13.659Z,340.00
2022-11-01T19:06:39.980Z,332.88
2022-11-01T19:09:06.343Z,323.20
2022-11-01T19:11:32.701Z,322.05
2022-11-01T19:13:59.026Z,319.10
2022-11-01T19:16:25.507Z,314.42
2022-11-01T19:18:52.164Z,336.85
2022-11-01T19:21:18.474Z,411.83
2022-11-01T19:23:44.979Z,477.88
2022-11-01T19:26:11.258Z,462.67
2022-11-01T19:28:38.543Z,462.95
2022-11-01T19:31:05.091Z,440.15
2022-11-01T19:33:31.398Z,447.15
2022-11-01T19:35:57.722Z,437.15
2022-11-01T19:38:24.420Z,433.83
2022-11-01T19:40:50.691Z,427.08
2022-11-01T19:43:17.127Z,421.77
2022-11-01T19:45:43.636Z,419.58
2022-11-01T19:48:09.994Z,414.10
2022-11-01T19:50:36.274Z,401.05
2022-11-01T19:53:02.691Z,416.00
2022-11-01T19:55:29.117Z,462.95
2022-11-01T19:57:55.485Z,493.13
2022-11-01T20:00:21.868Z,505.60
2022-11-01T20:02:48.523Z,494.65
2022-11-01T20:05:14.912Z,493.27
2022-11-01T20:07:41.347Z,489.13
2022-11-01T20:10:07.710Z,475.60
2022-11-01T20:12:34.111Z,473.48
2022-11-01T20:15:00.763Z,458.48
2022-11-01T20:17:27.309Z,459.73
2022-11-01T20:19:53.838Z,452.65
2022-11-01T20:22:21.126Z,450.60
2022-11-01T20:24:47.543Z,440.10
2022-11-01T20:27:14.033Z,444.20
2022-11-01T20:29:40.359Z,440.27
2022-11-01T20:32:06.764Z,428.95
2022-11-01T20:34:33.195Z,419.63
2022-11-01T20:37:26.782Z,417.30
2022-11-01T20:39:45.951Z,577.60
2022-11-01T20:42:12.446Z,599.38
2022-11-01T20:44:39.060Z,543.35
2022-11-01T20:47:05.387Z,527.08
2022-11-01T20:49:31.682Z,506.08
2022-11-01T20:52:13.535Z,478.75
2022-11-01T20:54:44.943Z,549.00
2022-11-01T20:57:24.807Z,556.55
2022-11-01T20:59:54.217Z,542.83
2022-11-01T21:02:20.575Z,527.63
2022-11-01T21:04:46.984Z,523.70
2022-11-01T21:07:13.287Z,514.42
2022-11-01T21:09:39.862Z,506.40
2022-11-01T21:12:06.331Z,504.98
2022-11-01T21:14:32.668Z,489.95
2022-11-01T21:16:59.006Z,487.90
2022-11-01T21:19:25.329Z,489.58
2022-11-01T21:21:51.923Z,478.15
2022-11-01T21:24:18.975Z,469.45
2022-11-01T21:26:45.299Z,467.30
2022-11-01T21:29:11.834Z,458.13
2022-11-01T21:31:38.526Z,457.08
2022-11-01T21:34:05.099Z,575.83
2022-11-01T21:36:31.425Z,612.78
2022-11-01T21:38:57.719Z,570.72
2022-11-01T21:41:24.252Z,546.35
2022-11-01T21:43:50.700Z,543.38
2022-11-01T21:46:17.067Z,533.78
2022-11-01T21:48:43.388Z,521.70
2022-11-01T21:51:09.922Z,509.58
2022-11-01T21:53:36.269Z,560.45
2022-11-01T21:56:02.761Z,662.60
2022-11-01T21:58:29.218Z,628.65
2022-11-01T22:00:55.805Z,598.40
2022-11-01T22:03:22.294Z,594.88
2022-11-01T22:05:48.656Z,584.20
2022-11-01T22:08:15.165Z,584.28
2022-11-01T22:10:41.797Z,569.78
2022-11-01T22:13:08.561Z,560.92
2022-11-01T22:15:35.119Z,560.42
2022-11-01T22:18:01.985Z,559.25
2022-11-01T22:20:28.323Z,583.90
2022-11-01T22:22:54.890Z,718.22
2022-11-01T22:25:21.186Z,703.83
2022-11-01T22:27:47.764Z,656.78
2022-11-01T22:30:14.138Z,637.60
2022-11-01T22:32:40.598Z,623.67
2022-11-01T22:35:06.878Z,618.10
2022-11-01T22:37:33.596Z,618.22
2022-11-01T22:39:59.914Z,645.03
2022-11-01T22:42:26.240Z,636.72
2022-11-01T22:44:52.792Z,630.25
2022-11-01T22:47:19.434Z,631.50
2022-11-01T22:49:45.917Z,629.88
2022-11-01T22:52:12.776Z,623.20
2022-11-01T22:54:39.274Z,618.38
2022-11-01T22:57:05.732Z,613.33
2022-11-01T22:59:33.352Z,604.97
2022-11-01T23:02:00.286Z,604.78
2022-11-01T23:04:27.252Z,603.95
2022-11-01T23:06:53.894Z,598.17
2022-11-01T23:09:20.292Z,593.53
2022-11-01T23:11:46.974Z,586.08
2022-11-01T23:14:14.427Z,587.38
2022-11-01T23:16:41.315Z,575.70
2022-11-01T23:19:07.926Z,570.28
2022-11-01T23:21:34.988Z,571.50
2022-11-01T23:24:01.421Z,571.13
2022-11-01T23:26:27.823Z,570.53
2022-11-01T23:28:54.176Z,560.97
2022-11-01T23:31:20.461Z,554.03
2022-11-01T23:33:46.810Z,554.28
2022-11-01T23:36:13.728Z,550.35
2022-11-01T23:38:40.051Z,544.05
2022-11-01T23:41:06.399Z,543.25
2022-11-01T23:43:32.720Z,535.90
2022-11-01T23:45:59.098Z,536.90
2022-11-01T23:48:25.641Z,532.78
2022-11-01T23:50:52.120Z,525.67
2022-11-01T23:53:20.472Z,526.80
2022-11-01T23:55:46.706Z,518.85
2022-11-01T23:58:13.064Z,517.40
